sensor_id;sensor_type;location;lat;lon;timestamp;temperature;humidity
64961;SHT31;51487;52.266;10.542;2022-09-09T00:00:53;14.41;98.25
64961;SHT31;51487;52.266;10.542;2022-09-09T00:03:26;14.38;97.75
64961;SHT31;51487;52.266;10.542;2022-09-09T00:09:12;14.34;98.13
64961;SHT31;51487;52.266;10.542;2022-09-09T00:11:54;14.34;98.08
64961;SHT31;51487;52.266;10.542;2022-09-09T00:20:14;14.44;98.41
64961;SHT31;51487;52.266;10.542;2022-09-09T00:22:53;14.48;98.21
64961;SHT31;51487;52.266;10.542;2022-09-09T00:25:36;14.58;98.18
64961;SHT31;51487;52.266;10.542;2022-09-09T00:28:13;14.63;97.82
64961;SHT31;51487;52.266;10.542;2022-09-09T00:30:41;14.67;97.69
64961;SHT31;51487;52.266;10.542;2022-09-09T00:33:13;14.64;97.38
64961;SHT31;51487;52.266;10.542;2022-09-09T00:35:58;14.68;97.27
64961;SHT31;51487;52.266;10.542;2022-09-09T00:38:35;14.64;97.17
64961;SHT31;51487;52.266;10.542;2022-09-09T00:43:39;14.67;97.10
64961;SHT31;51487;52.266;10.542;2022-09-09T00:51:58;14.71;97.05
64961;SHT31;51487;52.266;10.542;2022-09-09T00:57:17;14.78;96.49
64961;SHT31;51487;52.266;10.542;2022-09-09T00:59:55;14.78;96.35
64961;SHT31;51487;52.266;10.542;2022-09-09T01:02:34;14.76;96.80
64961;SHT31;51487;52.266;10.542;2022-09-09T01:08:25;14.85;96.51
64961;SHT31;51487;52.266;10.542;2022-09-09T01:10:54;14.89;96.25
64961;SHT31;51487;52.266;10.542;2022-09-09T01:13:32;14.96;96.26
64961;SHT31;51487;52.266;10.542;2022-09-09T01:16:01;14.95;95.76
64961;SHT31;51487;52.266;10.542;2022-09-09T01:18:39;14.93;95.77
64961;SHT31;51487;52.266;10.542;2022-09-09T01:21:49;14.88;95.88
64961;SHT31;51487;52.266;10.542;2022-09-09T01:24:38;14.81;95.92
64961;SHT31;51487;52.266;10.542;2022-09-09T01:27:07;14.69;96.20
64961;SHT31;51487;52.266;10.542;2022-09-09T01:29:33;14.64;96.23
64961;SHT31;51487;52.266;10.542;2022-09-09T01:32:35;14.58;96.08
64961;SHT31;51487;52.266;10.542;2022-09-09T01:34:47;14.65;96.51
64961;SHT31;51487;52.266;10.542;2022-09-09T01:37:13;14.58;96.35
64961;SHT31;51487;52.266;10.542;2022-09-09T01:39:42;14.58;96.24
64961;SHT31;51487;52.266;10.542;2022-09-09T01:42:12;14.48;96.24
64961;SHT31;51487;52.266;10.542;2022-09-09T01:44:38;14.49;96.62
64961;SHT31;51487;52.266;10.542;2022-09-09T01:47:05;14.42;96.33
64961;SHT31;51487;52.266;10.542;2022-09-09T01:49:31;14.40;96.42
64961;SHT31;51487;52.266;10.542;2022-09-09T01:51:58;14.35;96.64
64961;SHT31;51487;52.266;10.542;2022-09-09T01:54:29;14.40;96.52
64961;SHT31;51487;52.266;10.542;2022-09-09T02:00:11;14.38;96.95
64961;SHT31;51487;52.266;10.542;2022-09-09T02:05:40;14.26;97.04
64961;SHT31;51487;52.266;10.542;2022-09-09T02:08:17;14.31;97.04
64961;SHT31;51487;52.266;10.542;2022-09-09T02:11:13;14.34;97.64
64961;SHT31;51487;52.266;10.542;2022-09-09T02:13:39;14.31;97.41
64961;SHT31;51487;52.266;10.542;2022-09-09T02:16:23;14.28;97.53
64961;SHT31;51487;52.266;10.542;2022-09-09T02:19:09;14.27;97.65
64961;SHT31;51487;52.266;10.542;2022-09-09T02:21:42;14.24;97.14
64961;SHT31;51487;52.266;10.542;2022-09-09T02:24:12;14.20;97.61
64961;SHT31;51487;52.266;10.542;2022-09-09T02:26:42;14.13;97.43
64961;SHT31;51487;52.266;10.542;2022-09-09T02:29:33;14.18;97.80
64961;SHT31;51487;52.266;10.542;2022-09-09T02:32:05;14.17;97.48
64961;SHT31;51487;52.266;10.542;2022-09-09T02:34:35;14.20;97.63
64961;SHT31;51487;52.266;10.542;2022-09-09T02:37:04;14.16;97.12
64961;SHT31;51487;52.266;10.542;2022-09-09T02:39:31;14.14;97.28
64961;SHT31;51487;52.266;10.542;2022-09-09T02:41:57;14.14;97.57
64961;SHT31;51487;52.266;10.542;2022-09-09T02:44:22;14.17;98.31
64961;SHT31;51487;52.266;10.542;2022-09-09T02:52:14;14.14;97.50
64961;SHT31;51487;52.266;10.542;2022-09-09T02:54:44;14.21;98.22
64961;SHT31;51487;52.266;10.542;2022-09-09T02:57:21;14.18;97.81
64961;SHT31;51487;52.266;10.542;2022-09-09T02:59:49;14.17;97.75
64961;SHT31;51487;52.266;10.542;2022-09-09T03:02:15;14.16;98.22
64961;SHT31;51487;52.266;10.542;2022-09-09T03:04:41;14.13;97.46
64961;SHT31;51487;52.266;10.542;2022-09-09T03:07:11;14.13;98.14
64961;SHT31;51487;52.266;10.542;2022-09-09T03:09:37;14.13;97.95
64961;SHT31;51487;52.266;10.542;2022-09-09T03:12:03;14.18;97.48
64961;SHT31;51487;52.266;10.542;2022-09-09T03:14:30;14.13;97.32
64961;SHT31;51487;52.266;10.542;2022-09-09T03:16:56;14.16;97.50
64961;SHT31;51487;52.266;10.542;2022-09-09T03:19:25;14.13;97.41
64961;SHT31;51487;52.266;10.542;2022-09-09T03:21:51;14.10;97.40
64961;SHT31;51487;52.266;10.542;2022-09-09T03:24:17;14.12;97.35
64961;SHT31;51487;52.266;10.542;2022-09-09T03:26:42;14.12;97.35
64961;SHT31;51487;52.266;10.542;2022-09-09T03:29:12;14.13;97.36
64961;SHT31;51487;52.266;10.542;2022-09-09T03:31:38;14.12;97.33
64961;SHT31;51487;52.266;10.542;2022-09-09T03:34:05;14.10;97.64
64961;SHT31;51487;52.266;10.542;2022-09-09T03:36:31;14.12;97.30
64961;SHT31;51487;52.266;10.542;2022-09-09T03:38:57;14.17;98.24
64961;SHT31;51487;52.266;10.542;2022-09-09T03:41:24;14.20;97.60
64961;SHT31;51487;52.266;10.542;2022-09-09T03:43:51;14.17;97.18
64961;SHT31;51487;52.266;10.542;2022-09-09T03:46:21;14.17;97.09
64961;SHT31;51487;52.266;10.542;2022-09-09T03:48:47;14.24;97.57
64961;SHT31;51487;52.266;10.542;2022-09-09T03:51:12;14.27;97.11
64961;SHT31;51487;52.266;10.542;2022-09-09T03:53:38;14.30;96.77
64961;SHT31;51487;52.266;10.542;2022-09-09T03:56:05;14.37;96.69
64961;SHT31;51487;52.266;10.542;2022-09-09T03:58:34;14.33;96.79
64961;SHT31;51487;52.266;10.542;2022-09-09T04:01:12;14.31;97.23
64961;SHT31;51487;52.266;10.542;2022-09-09T04:03:43;14.34;96.65
64961;SHT31;51487;52.266;10.542;2022-09-09T04:06:10;14.31;96.87
64961;SHT31;51487;52.266;10.542;2022-09-09T04:08:37;14.35;96.96
64961;SHT31;51487;52.266;10.542;2022-09-09T04:11:04;14.38;96.79
64961;SHT31;51487;52.266;10.542;2022-09-09T04:13:32;14.35;96.65
64961;SHT31;51487;52.266;10.542;2022-09-09T04:16:01;14.41;96.70
64961;SHT31;51487;52.266;10.542;2022-09-09T04:18:27;14.45;96.56
64961;SHT31;51487;52.266;10.542;2022-09-09T04:20:56;14.52;97.39
64961;SHT31;51487;52.266;10.542;2022-09-09T04:23:23;14.55;97.10
64961;SHT31;51487;52.266;10.542;2022-09-09T04:25:54;14.64;96.83
64961;SHT31;51487;52.266;10.542;2022-09-09T04:28:23;14.63;97.20
64961;SHT31;51487;52.266;10.542;2022-09-09T04:30:49;14.64;97.44
64961;SHT31;51487;52.266;10.542;2022-09-09T04:33:15;14.65;96.84
64961;SHT31;51487;52.266;10.542;2022-09-09T04:35:47;14.67;97.08
64961;SHT31;51487;52.266;10.542;2022-09-09T04:38:15;14.71;97.51
64961;SHT31;51487;52.266;10.542;2022-09-09T04:40:47;14.69;96.75
64961;SHT31;51487;52.266;10.542;2022-09-09T04:43:13;14.69;96.51
64961;SHT31;51487;52.266;10.542;2022-09-09T04:45:40;14.71;96.39
64961;SHT31;51487;52.266;10.542;2022-09-09T04:48:07;14.75;96.43
64961;SHT31;51487;52.266;10.542;2022-09-09T04:50:33;14.76;96.54
64961;SHT31;51487;52.266;10.542;2022-09-09T04:53:04;14.79;96.10
64961;SHT31;51487;52.266;10.542;2022-09-09T04:55:31;14.74;95.75
64961;SHT31;51487;52.266;10.542;2022-09-09T04:57:56;14.82;96.28
64961;SHT31;51487;52.266;10.542;2022-09-09T05:00:25;14.92;96.07
64961;SHT31;51487;52.266;10.542;2022-09-09T05:02:50;14.98;96.92
64961;SHT31;51487;52.266;10.542;2022-09-09T05:05:16;15.02;96.19
64961;SHT31;51487;52.266;10.542;2022-09-09T05:07:42;15.10;96.93
64961;SHT31;51487;52.266;10.542;2022-09-09T05:10:08;15.13;95.85
64961;SHT31;51487;52.266;10.542;2022-09-09T05:12:35;15.20;96.46
64961;SHT31;51487;52.266;10.542;2022-09-09T05:15:01;15.20;95.70
64961;SHT31;51487;52.266;10.542;2022-09-09T05:17:26;15.27;95.48
64961;SHT31;51487;52.266;10.542;2022-09-09T05:19:53;15.30;95.76
64961;SHT31;51487;52.266;10.542;2022-09-09T05:22:21;15.34;95.12
64961;SHT31;51487;52.266;10.542;2022-09-09T05:24:49;15.39;95.12
64961;SHT31;51487;52.266;10.542;2022-09-09T05:27:17;15.42;95.29
64961;SHT31;51487;52.266;10.542;2022-09-09T05:29:45;15.44;95.37
64961;SHT31;51487;52.266;10.542;2022-09-09T05:32:11;15.42;95.29
64961;SHT31;51487;52.266;10.542;2022-09-09T05:34:38;15.40;94.42
64961;SHT31;51487;52.266;10.542;2022-09-09T05:37:05;15.49;94.49
64961;SHT31;51487;52.266;10.542;2022-09-09T05:39:31;15.60;95.08
64961;SHT31;51487;52.266;10.542;2022-09-09T05:41:58;15.64;95.37
64961;SHT31;51487;52.266;10.542;2022-09-09T05:44:23;15.64;94.48
64961;SHT31;51487;52.266;10.542;2022-09-09T05:46:52;15.67;93.70
64961;SHT31;51487;52.266;10.542;2022-09-09T05:49:19;15.70;93.62
64961;SHT31;51487;52.266;10.542;2022-09-09T05:51:46;15.78;92.85
64961;SHT31;51487;52.266;10.542;2022-09-09T05:54:12;15.82;93.19
64961;SHT31;51487;52.266;10.542;2022-09-09T05:56:41;15.82;93.78
64961;SHT31;51487;52.266;10.542;2022-09-09T05:59:06;15.97;94.30
64961;SHT31;51487;52.266;10.542;2022-09-09T06:01:35;15.92;93.65
64961;SHT31;51487;52.266;10.542;2022-09-09T06:04:02;15.87;93.93
64961;SHT31;51487;52.266;10.542;2022-09-09T06:06:32;15.97;93.92
64961;SHT31;51487;52.266;10.542;2022-09-09T06:09:04;15.97;93.53
64961;SHT31;51487;52.266;10.542;2022-09-09T06:11:33;15.91;92.81
64961;SHT31;51487;52.266;10.542;2022-09-09T06:13:59;15.97;92.74
64961;SHT31;51487;52.266;10.542;2022-09-09T06:16:27;16.11;93.24
64961;SHT31;51487;52.266;10.542;2022-09-09T06:18:55;16.12;93.93
64961;SHT31;51487;52.266;10.542;2022-09-09T06:21:26;16.18;93.85
64961;SHT31;51487;52.266;10.542;2022-09-09T06:23:52;16.25;93.66
64961;SHT31;51487;52.266;10.542;2022-09-09T06:26:25;16.40;93.57
64961;SHT31;51487;52.266;10.542;2022-09-09T06:28:53;16.43;92.80
64961;SHT31;51487;52.266;10.542;2022-09-09T06:31:22;16.43;92.27
64961;SHT31;51487;52.266;10.542;2022-09-09T06:33:50;16.49;93.04
64961;SHT31;51487;52.266;10.542;2022-09-09T06:36:20;16.55;92.59
64961;SHT31;51487;52.266;10.542;2022-09-09T06:38:47;16.53;91.41
64961;SHT31;51487;52.266;10.542;2022-09-09T06:41:15;16.57;91.34
64961;SHT31;51487;52.266;10.542;2022-09-09T06:43:42;16.55;91.61
64961;SHT31;51487;52.266;10.542;2022-09-09T06:46:20;16.60;92.54
64961;SHT31;51487;52.266;10.542;2022-09-09T06:48:47;16.63;93.25
64961;SHT31;51487;52.266;10.542;2022-09-09T06:51:21;16.71;92.94
64961;SHT31;51487;52.266;10.542;2022-09-09T06:53:51;16.70;92.79
64961;SHT31;51487;52.266;10.542;2022-09-09T06:56:20;16.71;91.70
64961;SHT31;51487;52.266;10.542;2022-09-09T06:58:47;16.79;93.06
64961;SHT31;51487;52.266;10.542;2022-09-09T07:01:17;16.83;91.79
64961;SHT31;51487;52.266;10.542;2022-09-09T07:03:48;16.87;92.79
64961;SHT31;51487;52.266;10.542;2022-09-09T07:06:27;16.85;92.86
64961;SHT31;51487;52.266;10.542;2022-09-09T07:09:02;16.84;94.00
64961;SHT31;51487;52.266;10.542;2022-09-09T07:11:41;16.80;92.59
64961;SHT31;51487;52.266;10.542;2022-09-09T07:14:08;16.83;92.32
64961;SHT31;51487;52.266;10.542;2022-09-09T07:16:34;16.81;92.34
64961;SHT31;51487;52.266;10.542;2022-09-09T07:19:03;16.88;92.70
64961;SHT31;51487;52.266;10.542;2022-09-09T07:21:32;16.88;91.46
64961;SHT31;51487;52.266;10.542;2022-09-09T07:23:57;16.90;91.35
64961;SHT31;51487;52.266;10.542;2022-09-09T07:26:27;16.92;91.11
64961;SHT31;51487;52.266;10.542;2022-09-09T07:28:54;16.95;90.45
64961;SHT31;51487;52.266;10.542;2022-09-09T07:31:26;17.03;89.98
64961;SHT31;51487;52.266;10.542;2022-09-09T07:33:53;17.12;89.93
64961;SHT31;51487;52.266;10.542;2022-09-09T07:36:23;17.21;89.96
64961;SHT31;51487;52.266;10.542;2022-09-09T07:38:59;17.38;88.74
64961;SHT31;51487;52.266;10.542;2022-09-09T07:41:35;17.50;88.37
64961;SHT31;51487;52.266;10.542;2022-09-09T07:44:17;17.56;88.21
64961;SHT31;51487;52.266;10.542;2022-09-09T07:46:44;17.61;88.29
64961;SHT31;51487;52.266;10.542;2022-09-09T07:49:11;17.66;87.97
64961;SHT31;51487;52.266;10.542;2022-09-09T07:51:43;17.75;87.00
64961;SHT31;51487;52.266;10.542;2022-09-09T07:54:13;17.79;85.96
64961;SHT31;51487;52.266;10.542;2022-09-09T07:56:40;17.89;87.96
64961;SHT31;51487;52.266;10.542;2022-09-09T07:59:06;17.91;86.84
64961;SHT31;51487;52.266;10.542;2022-09-09T08:01:39;17.93;87.51
64961;SHT31;51487;52.266;10.542;2022-09-09T08:04:08;18.00;86.23
64961;SHT31;51487;52.266;10.542;2022-09-09T08:06:38;18.11;85.63
64961;SHT31;51487;52.266;10.542;2022-09-09T08:09:06;18.21;85.71
64961;SHT31;51487;52.266;10.542;2022-09-09T08:11:33;18.28;85.05
64961;SHT31;51487;52.266;10.542;2022-09-09T08:13:59;18.37;85.12
64961;SHT31;51487;52.266;10.542;2022-09-09T08:16:29;18.43;84.23
64961;SHT31;51487;52.266;10.542;2022-09-09T08:18:56;18.57;84.73
64961;SHT31;51487;52.266;10.542;2022-09-09T08:21:27;18.65;84.70
64961;SHT31;51487;52.266;10.542;2022-09-09T08:23:56;18.73;82.31
64961;SHT31;51487;52.266;10.542;2022-09-09T08:26:34;18.94;79.43
64961;SHT31;51487;52.266;10.542;2022-09-09T08:29:02;18.96;81.33
64961;SHT31;51487;52.266;10.542;2022-09-09T08:31:32;18.91;79.77
64961;SHT31;51487;52.266;10.542;2022-09-09T08:33:59;19.09;79.26
64961;SHT31;51487;52.266;10.542;2022-09-09T08:36:28;19.15;78.29
64961;SHT31;51487;52.266;10.542;2022-09-09T08:38:56;19.16;78.29
64961;SHT31;51487;52.266;10.542;2022-09-09T08:50:45;19.81;76.84
64961;SHT31;51487;52.266;10.542;2022-09-09T08:53:21;19.82;77.59
64961;SHT31;51487;52.266;10.542;2022-09-09T08:55:53;19.74;76.93
64961;SHT31;51487;52.266;10.542;2022-09-09T08:58:28;19.70;77.45
64961;SHT31;51487;52.266;10.542;2022-09-09T09:01:17;19.55;77.26
64961;SHT31;51487;52.266;10.542;2022-09-09T09:04:02;19.57;75.70
64961;SHT31;51487;52.266;10.542;2022-09-09T09:09:08;19.36;77.29
64961;SHT31;51487;52.266;10.542;2022-09-09T09:11:38;19.41;77.61
64961;SHT31;51487;52.266;10.542;2022-09-09T09:14:19;19.37;77.23
64961;SHT31;51487;52.266;10.542;2022-09-09T09:17:02;19.36;78.01
64961;SHT31;51487;52.266;10.542;2022-09-09T09:19:30;19.58;77.18
64961;SHT31;51487;52.266;10.542;2022-09-09T09:24:56;19.84;75.87
64961;SHT31;51487;52.266;10.542;2022-09-09T09:28:15;20.01;76.51
64961;SHT31;51487;52.266;10.542;2022-09-09T09:33:49;20.04;76.01
64961;SHT31;51487;52.266;10.542;2022-09-09T09:36:16;20.21;75.84
64961;SHT31;51487;52.266;10.542;2022-09-09T09:39:02;20.40;74.85
64961;SHT31;51487;52.266;10.542;2022-09-09T09:41:40;20.67;72.60
64961;SHT31;51487;52.266;10.542;2022-09-09T09:46:52;20.53;72.97
64961;SHT31;51487;52.266;10.542;2022-09-09T09:49:17;20.36;74.87
64961;SHT31;51487;52.266;10.542;2022-09-09T09:51:43;20.22;74.75
64961;SHT31;51487;52.266;10.542;2022-09-09T09:54:17;20.29;75.88
64961;SHT31;51487;52.266;10.542;2022-09-09T09:56:45;20.04;74.87
64961;SHT31;51487;52.266;10.542;2022-09-09T09:59:36;19.91;76.34
64961;SHT31;51487;52.266;10.542;2022-09-09T10:02:17;19.82;75.42
64961;SHT31;51487;52.266;10.542;2022-09-09T10:04:43;19.81;75.97
64961;SHT31;51487;52.266;10.542;2022-09-09T10:07:21;19.75;75.12
64961;SHT31;51487;52.266;10.542;2022-09-09T10:09:56;19.84;74.79
64961;SHT31;51487;52.266;10.542;2022-09-09T10:21:03;19.91;76.00
64961;SHT31;51487;52.266;10.542;2022-09-09T10:26:48;20.02;75.18
64961;SHT31;51487;52.266;10.542;2022-09-09T10:29:43;20.13;74.84
64961;SHT31;51487;52.266;10.542;2022-09-09T10:35:41;20.26;75.27
64961;SHT31;51487;52.266;10.542;2022-09-09T10:38:27;20.46;75.72
64961;SHT31;51487;52.266;10.542;2022-09-09T10:46:45;20.59;73.40
64961;SHT31;51487;52.266;10.542;2022-09-09T10:55:20;20.34;73.77
64961;SHT31;51487;52.266;10.542;2022-09-09T10:57:49;20.30;74.19
64961;SHT31;51487;52.266;10.542;2022-09-09T11:00:40;20.34;75.28
64961;SHT31;51487;52.266;10.542;2022-09-09T11:03:19;20.30;73.87
64961;SHT31;51487;52.266;10.542;2022-09-09T11:05:56;20.32;71.05
64961;SHT31;51487;52.266;10.542;2022-09-09T11:08:29;20.37;71.90
64961;SHT31;51487;52.266;10.542;2022-09-09T11:13:49;20.50;69.42
64961;SHT31;51487;52.266;10.542;2022-09-09T11:19:39;20.49;71.30
64961;SHT31;51487;52.266;10.542;2022-09-09T11:22:33;20.44;70.84
64961;SHT31;51487;52.266;10.542;2022-09-09T11:39:59;20.52;72.19
64961;SHT31;51487;52.266;10.542;2022-09-09T11:42:29;20.83;71.39
64961;SHT31;51487;52.266;10.542;2022-09-09T11:44:55;21.11;70.75
64961;SHT31;51487;52.266;10.542;2022-09-09T11:47:31;21.17;68.98
64961;SHT31;51487;52.266;10.542;2022-09-09T11:52:43;21.01;67.25
64961;SHT31;51487;52.266;10.542;2022-09-09T11:55:11;20.74;66.83
64961;SHT31;51487;52.266;10.542;2022-09-09T11:57:45;20.87;67.53
64961;SHT31;51487;52.266;10.542;2022-09-09T12:02:58;20.80;67.34
64961;SHT31;51487;52.266;10.542;2022-09-09T12:05:39;20.88;66.20
64961;SHT31;51487;52.266;10.542;2022-09-09T12:08:09;21.00;65.49
64961;SHT31;51487;52.266;10.542;2022-09-09T12:10:39;21.21;66.29
64961;SHT31;51487;52.266;10.542;2022-09-09T12:13:21;21.45;66.76
64961;SHT31;51487;52.266;10.542;2022-09-09T12:18:39;21.58;67.35
64961;SHT31;51487;52.266;10.542;2022-09-09T12:21:38;21.60;66.84
64961;SHT31;51487;52.266;10.542;2022-09-09T12:24:11;21.80;66.59
64961;SHT31;51487;52.266;10.542;2022-09-09T12:26:46;21.93;65.96
64961;SHT31;51487;52.266;10.542;2022-09-09T12:29:29;22.16;66.43
64961;SHT31;51487;52.266;10.542;2022-09-09T12:32:11;22.13;65.73
64961;SHT31;51487;52.266;10.542;2022-09-09T12:37:37;22.16;63.06
64961;SHT31;51487;52.266;10.542;2022-09-09T12:40:28;22.28;61.85
64961;SHT31;51487;52.266;10.542;2022-09-09T12:42:54;22.40;62.56
64961;SHT31;51487;52.266;10.542;2022-09-09T12:45:25;22.43;62.89
64961;SHT31;51487;52.266;10.542;2022-09-09T12:48:03;22.49;62.00
64961;SHT31;51487;52.266;10.542;2022-09-09T12:50:34;22.65;60.54
64961;SHT31;51487;52.266;10.542;2022-09-09T12:55:54;23.10;57.96
64961;SHT31;51487;52.266;10.542;2022-09-09T12:58:21;23.09;58.97
64961;SHT31;51487;52.266;10.542;2022-09-09T13:00:56;23.24;59.21
64961;SHT31;51487;52.266;10.542;2022-09-09T13:03:23;23.23;61.71
64961;SHT31;51487;52.266;10.542;2022-09-09T13:05:51;23.44;60.95
64961;SHT31;51487;52.266;10.542;2022-09-09T13:08:19;23.27;61.20
64961;SHT31;51487;52.266;10.542;2022-09-09T13:11:07;23.00;61.67
64961;SHT31;51487;52.266;10.542;2022-09-09T13:13:41;22.73;59.89
64961;SHT31;51487;52.266;10.542;2022-09-09T13:16:36;22.21;61.71
64961;SHT31;51487;52.266;10.542;2022-09-09T13:19:08;21.69;62.94
64961;SHT31;51487;52.266;10.542;2022-09-09T13:21:38;21.28;64.78
64961;SHT31;51487;52.266;10.542;2022-09-09T13:24:06;21.27;65.27
64961;SHT31;51487;52.266;10.542;2022-09-09T13:26:58;21.29;64.35
64961;SHT31;51487;52.266;10.542;2022-09-09T13:29:25;21.10;64.77
64961;SHT31;51487;52.266;10.542;2022-09-09T13:31:54;21.21;64.44
64961;SHT31;51487;52.266;10.542;2022-09-09T13:34:34;21.25;66.65
64961;SHT31;51487;52.266;10.542;2022-09-09T13:37:06;21.46;68.36
64961;SHT31;51487;52.266;10.542;2022-09-09T13:39:37;21.34;68.13
64961;SHT31;51487;52.266;10.542;2022-09-09T13:42:04;21.20;67.88
64961;SHT31;51487;52.266;10.542;2022-09-09T13:44:40;21.12;67.37
64961;SHT31;51487;52.266;10.542;2022-09-09T13:47:19;21.05;66.76
64961;SHT31;51487;52.266;10.542;2022-09-09T13:49:46;21.08;67.66
64961;SHT31;51487;52.266;10.542;2022-09-09T13:52:13;21.10;66.39
64961;SHT31;51487;52.266;10.542;2022-09-09T13:54:40;21.05;67.25
64961;SHT31;51487;52.266;10.542;2022-09-09T13:57:16;21.37;67.38
64961;SHT31;51487;52.266;10.542;2022-09-09T13:59:44;21.34;65.10
64961;SHT31;51487;52.266;10.542;2022-09-09T14:02:10;21.28;63.32
64961;SHT31;51487;52.266;10.542;2022-09-09T14:04:35;21.15;62.83
64961;SHT31;51487;52.266;10.542;2022-09-09T14:07:02;21.15;61.60
64961;SHT31;51487;52.266;10.542;2022-09-09T14:09:28;21.31;61.44
64961;SHT31;51487;52.266;10.542;2022-09-09T14:11:54;21.25;60.26
64961;SHT31;51487;52.266;10.542;2022-09-09T14:14:20;21.24;60.71
64961;SHT31;51487;52.266;10.542;2022-09-09T14:16:46;21.15;59.77
64961;SHT31;51487;52.266;10.542;2022-09-09T14:19:12;21.17;60.62
64961;SHT31;51487;52.266;10.542;2022-09-09T14:21:38;20.91;61.67
64961;SHT31;51487;52.266;10.542;2022-09-09T14:24:04;20.90;63.18
64961;SHT31;51487;52.266;10.542;2022-09-09T14:26:30;20.95;63.47
64961;SHT31;51487;52.266;10.542;2022-09-09T14:28:56;20.81;63.24
64961;SHT31;51487;52.266;10.542;2022-09-09T14:31:25;20.85;63.85
64961;SHT31;51487;52.266;10.542;2022-09-09T14:33:51;20.80;64.23
64961;SHT31;51487;52.266;10.542;2022-09-09T14:36:17;20.69;65.37
64961;SHT31;51487;52.266;10.542;2022-09-09T14:38:42;20.53;65.76
64961;SHT31;51487;52.266;10.542;2022-09-09T14:41:14;20.47;66.76
64961;SHT31;51487;52.266;10.542;2022-09-09T14:43:45;20.39;66.82
64961;SHT31;51487;52.266;10.542;2022-09-09T14:46:14;20.37;66.61
64961;SHT31;51487;52.266;10.542;2022-09-09T14:48:40;20.33;67.33
64961;SHT31;51487;52.266;10.542;2022-09-09T14:51:17;20.36;67.05
64961;SHT31;51487;52.266;10.542;2022-09-09T14:53:45;20.30;67.82
64961;SHT31;51487;52.266;10.542;2022-09-09T14:56:19;20.25;68.03
64961;SHT31;51487;52.266;10.542;2022-09-09T14:58:46;20.26;67.81
64961;SHT31;51487;52.266;10.542;2022-09-09T15:01:17;20.21;67.77
64961;SHT31;51487;52.266;10.542;2022-09-09T15:03:50;20.18;68.06
64961;SHT31;51487;52.266;10.542;2022-09-09T15:06:17;20.16;68.12
64961;SHT31;51487;52.266;10.542;2022-09-09T15:08:44;20.39;68.06
64961;SHT31;51487;52.266;10.542;2022-09-09T15:11:12;20.36;68.91
64961;SHT31;51487;52.266;10.542;2022-09-09T15:13:40;20.42;68.75
64961;SHT31;51487;52.266;10.542;2022-09-09T15:16:13;20.33;68.24
64961;SHT31;51487;52.266;10.542;2022-09-09T15:18:40;20.29;68.58
64961;SHT31;51487;52.266;10.542;2022-09-09T15:21:17;20.33;68.47
64961;SHT31;51487;52.266;10.542;2022-09-09T15:23:45;20.47;68.51
64961;SHT31;51487;52.266;10.542;2022-09-09T15:26:11;20.56;67.91
64961;SHT31;51487;52.266;10.542;2022-09-09T15:28:39;20.57;67.60
64961;SHT31;51487;52.266;10.542;2022-09-09T15:31:23;20.80;66.56
64961;SHT31;51487;52.266;10.542;2022-09-09T15:33:52;20.74;67.95
64961;SHT31;51487;52.266;10.542;2022-09-09T15:36:24;20.71;67.34
64961;SHT31;51487;52.266;10.542;2022-09-09T15:38:51;20.76;67.35
64961;SHT31;51487;52.266;10.542;2022-09-09T15:41:19;20.81;67.28
64961;SHT31;51487;52.266;10.542;2022-09-09T15:43:48;20.83;66.29
64961;SHT31;51487;52.266;10.542;2022-09-09T15:48:49;21.05;66.45
64961;SHT31;51487;52.266;10.542;2022-09-09T15:51:16;21.05;66.67
64961;SHT31;51487;52.266;10.542;2022-09-09T15:53:42;21.05;66.03
64961;SHT31;51487;52.266;10.542;2022-09-09T15:56:08;21.08;65.81
64961;SHT31;51487;52.266;10.542;2022-09-09T15:58:35;21.11;70.94
64961;SHT31;51487;52.266;10.542;2022-09-09T16:01:05;21.80;87.65
64961;SHT31;51487;52.266;10.542;2022-09-09T16:03:37;22.30;91.70
64961;SHT31;51487;52.266;10.542;2022-09-09T16:06:04;22.76;91.81
64961;SHT31;51487;52.266;10.542;2022-09-09T16:08:35;22.88;91.54
64961;SHT31;51487;52.266;10.542;2022-09-09T16:13:36;22.84;72.85
64961;SHT31;51487;52.266;10.542;2022-09-09T16:16:03;22.71;69.01
64961;SHT31;51487;52.266;10.542;2022-09-09T16:18:38;22.72;80.11
64961;SHT31;51487;52.266;10.542;2022-09-09T16:21:05;22.49;66.60
64961;SHT31;51487;52.266;10.542;2022-09-09T16:23:34;22.36;72.66
64961;SHT31;51487;52.266;10.542;2022-09-09T16:26:01;22.41;74.55
64961;SHT31;51487;52.266;10.542;2022-09-09T16:28:27;22.47;73.02
64961;SHT31;51487;52.266;10.542;2022-09-09T16:30:52;22.58;71.85
64961;SHT31;51487;52.266;10.542;2022-09-09T16:33:18;22.68;70.57
64961;SHT31;51487;52.266;10.542;2022-09-09T16:35:44;22.69;69.55
64961;SHT31;51487;52.266;10.542;2022-09-09T16:38:10;22.72;70.52
64961;SHT31;51487;52.266;10.542;2022-09-09T16:40:37;22.71;69.89
64961;SHT31;51487;52.266;10.542;2022-09-09T16:43:04;22.68;69.71
64961;SHT31;51487;52.266;10.542;2022-09-09T16:45:31;22.64;70.05
64961;SHT31;51487;52.266;10.542;2022-09-09T16:47:58;22.61;70.25
64961;SHT31;51487;52.266;10.542;2022-09-09T16:50:24;22.54;70.08
64961;SHT31;51487;52.266;10.542;2022-09-09T16:52:51;22.44;70.10
64961;SHT31;51487;52.266;10.542;2022-09-09T16:55:18;22.30;70.09
64961;SHT31;51487;52.266;10.542;2022-09-09T16:57:46;22.21;71.10
64961;SHT31;51487;52.266;10.542;2022-09-09T17:00:14;22.04;70.90
64961;SHT31;51487;52.266;10.542;2022-09-09T17:02:42;21.87;71.14
64961;SHT31;51487;52.266;10.542;2022-09-09T17:05:08;21.72;72.51
64961;SHT31;51487;52.266;10.542;2022-09-09T17:07:34;21.56;70.37
64961;SHT31;51487;52.266;10.542;2022-09-09T17:10:01;21.43;73.03
64961;SHT31;51487;52.266;10.542;2022-09-09T17:12:27;21.39;72.19
64961;SHT31;51487;52.266;10.542;2022-09-09T17:14:52;21.45;72.79
64961;SHT31;51487;52.266;10.542;2022-09-09T17:17:18;21.48;72.08
64961;SHT31;51487;52.266;10.542;2022-09-09T17:19:44;21.45;71.42
64961;SHT31;51487;52.266;10.542;2022-09-09T17:22:09;21.45;71.71
64961;SHT31;51487;52.266;10.542;2022-09-09T17:24:35;21.41;71.11
64961;SHT31;51487;52.266;10.542;2022-09-09T17:27:04;21.29;71.63
64961;SHT31;51487;52.266;10.542;2022-09-09T17:29:29;21.31;72.32
64961;SHT31;51487;52.266;10.542;2022-09-09T17:31:55;21.38;71.32
64961;SHT31;51487;52.266;10.542;2022-09-09T17:34:21;21.41;71.88
64961;SHT31;51487;52.266;10.542;2022-09-09T17:36:48;21.34;71.30
64961;SHT31;51487;52.266;10.542;2022-09-09T17:39:13;21.12;71.96